createdAt,value
2022-09-14T00:01:25.873Z,8.73
2022-09-14T00:03:59.781Z,8.57
2022-09-14T00:06:27.290Z,12.07
2022-09-14T00:08:55.715Z,11.65
2022-09-14T00:11:24.888Z,9.98
2022-09-14T00:13:52.120Z,9.10
2022-09-14T00:16:22.503Z,9.80
2022-09-14T00:18:54.158Z,8.73
2022-09-14T00:21:22.032Z,11.48
2022-09-14T00:23:48.967Z,11.50
2022-09-14T00:26:18.139Z,8.48
2022-09-14T00:28:47.473Z,7.60
2022-09-14T00:31:15.434Z,10.60
2022-09-14T00:33:43.823Z,9.25
2022-09-14T00:36:13.184Z,10.00
2022-09-14T00:38:40.848Z,12.50
2022-09-14T00:41:12.347Z,12.65
2022-09-14T00:43:53.496Z,13.00
2022-09-14T00:46:20.514Z,12.10
2022-09-14T00:48:47.642Z,13.43
2022-09-14T00:51:15.837Z,14.65
2022-09-14T00:53:43.227Z,10.77
2022-09-14T00:56:11.007Z,13.05
2022-09-14T00:58:38.573Z,16.50
2022-09-14T01:01:05.456Z,11.27
2022-09-14T01:03:32.263Z,12.02
2022-09-14T01:06:23.698Z,18.25
2022-09-14T01:09:10.165Z,13.38
2022-09-14T01:11:51.529Z,13.93
2022-09-14T01:14:53.418Z,19.30
2022-09-14T01:17:41.262Z,13.65
2022-09-14T01:20:25.965Z,12.70
2022-09-14T01:23:08.325Z,12.50
2022-09-14T01:26:03.502Z,14.30
2022-09-14T01:28:52.282Z,17.60
2022-09-14T01:31:28.443Z,13.40
2022-09-14T01:34:09.188Z,12.60
2022-09-14T01:36:39.019Z,9.82
2022-09-14T01:39:07.284Z,9.90
2022-09-14T01:41:35.891Z,13.27
2022-09-14T01:44:18.641Z,10.68
2022-09-14T01:47:01.755Z,12.57
2022-09-14T01:49:32.563Z,11.90
2022-09-14T01:52:25.229Z,12.13
2022-09-14T01:55:04.267Z,13.23
2022-09-14T01:57:41.613Z,12.18
2022-09-14T02:00:12.187Z,13.68
2022-09-14T02:02:54.875Z,13.48
2022-09-14T02:05:30.622Z,14.93
2022-09-14T02:07:59.001Z,14.57
2022-09-14T02:10:26.939Z,11.63
2022-09-14T02:12:55.280Z,12.93
2022-09-14T02:15:22.763Z,12.63
2022-09-14T02:17:49.709Z,9.60
2022-09-14T02:20:32.748Z,10.13
2022-09-14T02:23:00.064Z,10.35
2022-09-14T02:25:27.567Z,11.10
2022-09-14T02:27:55.231Z,10.38
2022-09-14T02:30:22.547Z,12.20
2022-09-14T02:33:12.943Z,11.32
2022-09-14T02:35:49.821Z,10.20
2022-09-14T02:38:39.492Z,14.70
2022-09-14T02:41:34.550Z,12.05
2022-09-14T02:44:39.257Z,11.90
2022-09-14T02:47:18.024Z,11.68
2022-09-14T02:50:08.666Z,15.38
2022-09-14T02:52:51.471Z,13.98
2022-09-14T02:55:21.566Z,14.07
2022-09-14T02:58:09.182Z,10.52
2022-09-14T03:00:47.648Z,10.40
2022-09-14T03:03:16.833Z,15.35
2022-09-14T03:05:44.242Z,11.38
2022-09-14T03:08:11.720Z,11.15
2022-09-14T03:10:41.145Z,10.90
2022-09-14T03:13:07.893Z,10.82
2022-09-14T03:15:35.121Z,13.05
2022-09-14T03:18:01.846Z,11.82
2022-09-14T03:20:31.579Z,13.27
2022-09-14T03:22:59.091Z,12.20
2022-09-14T03:25:26.606Z,15.15
2022-09-14T03:27:55.632Z,11.48
2022-09-14T03:30:23.196Z,10.95
2022-09-14T03:32:50.226Z,11.13
2022-09-14T03:35:17.817Z,14.80
2022-09-14T03:37:45.846Z,11.13
2022-09-14T03:40:20.757Z,11.73
2022-09-14T03:42:51.439Z,12.30
2022-09-14T03:45:19.835Z,19.15
2022-09-14T03:47:49.474Z,14.00
2022-09-14T03:50:17.932Z,12.02
2022-09-14T03:52:44.894Z,11.75
2022-09-14T03:55:11.650Z,15.52
2022-09-14T03:57:39.124Z,11.27
2022-09-14T04:00:07.347Z,10.07
2022-09-14T04:02:34.120Z,11.80
2022-09-14T04:05:00.862Z,10.20
2022-09-14T04:07:27.969Z,12.18
2022-09-14T04:09:54.728Z,14.10
2022-09-14T04:12:21.572Z,12.90
2022-09-14T04:14:49.398Z,15.32
2022-09-14T04:17:17.223Z,14.20
2022-09-14T04:19:44.569Z,13.57
2022-09-14T04:22:11.535Z,17.77
2022-09-14T04:24:38.296Z,13.48
2022-09-14T04:27:04.973Z,12.43
2022-09-14T04:29:31.727Z,11.70
2022-09-14T04:31:58.458Z,13.10
2022-09-14T04:34:25.208Z,15.75
2022-09-14T04:36:52.148Z,15.55
2022-09-14T04:39:18.817Z,13.57
2022-09-14T04:41:45.971Z,18.08
2022-09-14T04:44:12.831Z,13.30
2022-09-14T04:46:46.186Z,12.57
2022-09-14T04:49:18.737Z,11.23
2022-09-14T04:51:45.632Z,11.82
2022-09-14T04:54:15.234Z,16.98
2022-09-14T04:56:42.182Z,16.17
2022-09-14T04:59:09.225Z,13.60
2022-09-14T05:01:44.818Z,15.15
2022-09-14T05:04:12.344Z,16.83
2022-09-14T05:06:40.737Z,15.70
2022-09-14T05:09:15.750Z,17.90
2022-09-14T05:11:43.371Z,14.82
2022-09-14T05:14:13.131Z,15.70
2022-09-14T05:16:41.313Z,15.23
2022-09-14T05:19:11.549Z,16.67
2022-09-14T05:21:38.508Z,14.85
2022-09-14T05:24:12.509Z,16.98
2022-09-14T05:26:39.311Z,14.02
2022-09-14T05:29:06.018Z,15.38
2022-09-14T05:31:33.277Z,13.23
2022-09-14T05:34:00.225Z,14.50
2022-09-14T05:36:27.154Z,15.07
2022-09-14T05:38:53.887Z,15.63
2022-09-14T05:41:20.849Z,13.88
2022-09-14T05:43:47.758Z,17.25
2022-09-14T05:46:17.222Z,16.35
2022-09-14T05:48:44.355Z,15.48
2022-09-14T05:51:15.889Z,12.25
2022-09-14T05:53:47.335Z,13.63
2022-09-14T05:56:14.654Z,12.35
2022-09-14T05:58:42.616Z,13.30
2022-09-14T06:01:12.045Z,16.75
2022-09-14T06:03:39.414Z,14.15
2022-09-14T06:06:07.452Z,14.98
2022-09-14T06:08:34.506Z,16.80
2022-09-14T06:11:19.219Z,15.68
2022-09-14T06:13:46.859Z,17.27
2022-09-14T06:16:19.682Z,18.42
2022-09-14T06:18:47.229Z,16.98
2022-09-14T06:21:16.699Z,15.50
2022-09-14T06:23:44.190Z,11.13
2022-09-14T06:26:11.798Z,11.55
2022-09-14T06:28:39.011Z,13.23
2022-09-14T06:31:07.673Z,11.45
2022-09-14T06:33:35.164Z,11.27
2022-09-14T06:36:12.557Z,11.07
2022-09-14T06:38:40.574Z,11.07
2022-09-14T06:41:09.247Z,11.10
2022-09-14T06:43:41.215Z,12.60
2022-09-14T06:46:21.039Z,11.68
2022-09-14T06:48:54.598Z,9.48
2022-09-14T06:51:25.986Z,10.85
2022-09-14T06:53:53.915Z,10.65
2022-09-14T06:56:21.301Z,11.02
2022-09-14T06:58:49.818Z,10.20
2022-09-14T07:01:19.720Z,13.30
2022-09-14T07:03:47.945Z,14.32
2022-09-14T07:06:17.108Z,19.05
2022-09-14T07:08:44.241Z,18.10
2022-09-14T07:11:12.389Z,16.63
2022-09-14T07:13:39.626Z,15.30
2022-09-14T07:16:07.914Z,13.38
2022-09-14T07:18:35.408Z,16.92
2022-09-14T07:21:21.252Z,16.45
2022-09-14T07:23:48.754Z,20.50
2022-09-14T07:26:21.471Z,15.45
2022-09-14T07:28:50.907Z,15.35
2022-09-14T07:31:22.537Z,16.27
2022-09-14T07:33:53.762Z,11.88
2022-09-14T07:36:21.697Z,10.88
2022-09-14T07:38:57.759Z,11.50
2022-09-14T07:41:27.582Z,15.15
2022-09-14T07:44:00.436Z,11.85
2022-09-14T07:46:29.171Z,11.65
2022-09-14T07:48:58.107Z,13.52
2022-09-14T07:51:25.905Z,12.50
2022-09-14T07:53:53.213Z,16.52
2022-09-14T07:56:21.684Z,11.98
2022-09-14T07:58:53.989Z,11.77
2022-09-14T08:01:22.126Z,11.60
2022-09-14T08:03:49.163Z,15.00
2022-09-14T08:06:19.258Z,12.43
2022-09-14T08:08:48.450Z,15.32
2022-09-14T08:11:19.502Z,15.45
2022-09-14T08:13:50.670Z,15.00
2022-09-14T08:16:19.216Z,12.40
2022-09-14T08:18:46.953Z,15.77
2022-09-14T08:21:16.641Z,17.10
2022-09-14T08:23:44.285Z,15.80
2022-09-14T08:26:16.909Z,14.20
2022-09-14T08:28:44.536Z,13.20
2022-09-14T08:31:15.613Z,12.30
2022-09-14T08:33:45.363Z,12.55
2022-09-14T08:36:14.546Z,11.57
2022-09-14T08:38:42.169Z,12.23
2022-09-14T08:41:29.951Z,10.63
2022-09-14T08:44:15.684Z,13.18
2022-09-14T08:46:47.699Z,10.20
2022-09-14T08:49:28.526Z,10.00
2022-09-14T08:51:56.117Z,10.23
2022-09-14T08:54:23.313Z,9.85
2022-09-14T08:57:01.928Z,11.38
2022-09-14T08:59:40.292Z,9.80
2022-09-14T09:02:28.117Z,10.35
2022-09-14T09:05:14.584Z,11.18
2022-09-14T09:08:13.786Z,10.45
2022-09-14T09:10:41.567Z,11.65
2022-09-14T09:13:13.794Z,12.93
2022-09-14T09:15:53.059Z,12.55
2022-09-14T09:18:38.115Z,12.82
2022-09-14T09:21:16.601Z,12.80
2022-09-14T09:23:44.003Z,13.52
2022-09-14T09:26:28.195Z,12.48
2022-09-14T09:28:58.058Z,13.52
2022-09-14T09:31:39.023Z,13.68
2022-09-14T09:34:06.426Z,14.00
2022-09-14T09:36:41.710Z,13.15
2022-09-14T09:39:08.836Z,11.88
2022-09-14T09:42:01.432Z,12.10
2022-09-14T09:44:28.462Z,13.25
2022-09-14T09:46:59.498Z,13.00
2022-09-14T09:49:34.949Z,13.35
2022-09-14T09:52:15.085Z,11.80
2022-09-14T09:54:49.065Z,11.93
2022-09-14T09:57:23.619Z,13.32
2022-09-14T09:59:50.402Z,11.15
2022-09-14T10:02:27.960Z,13.20
2022-09-14T10:05:19.792Z,12.77
2022-09-14T10:07:52.339Z,11.88
2022-09-14T10:10:23.627Z,12.57
2022-09-14T10:12:56.126Z,11.60
2022-09-14T10:15:29.155Z,13.00
2022-09-14T10:18:11.006Z,12.20
2022-09-14T10:21:05.436Z,12.70
2022-09-14T10:23:36.173Z,13.15
2022-09-14T10:26:12.230Z,12.75
2022-09-14T10:28:39.905Z,12.13
2022-09-14T10:31:16.833Z,13.63
2022-09-14T10:33:44.742Z,12.15
2022-09-14T10:36:17.398Z,11.57
2022-09-14T10:38:58.506Z,10.45
2022-09-14T10:41:38.825Z,12.23
2022-09-14T10:44:34.398Z,12.05
2022-09-14T10:47:10.057Z,12.30
2022-09-14T10:50:21.047Z,13.48
2022-09-14T10:53:20.182Z,13.30
2022-09-14T10:56:03.788Z,10.32
2022-09-14T11:01:35.420Z,11.52
2022-09-14T11:04:08.074Z,9.02
2022-09-14T11:06:50.078Z,12.33
2022-09-14T11:09:16.764Z,10.15
2022-09-14T11:11:43.433Z,11.25
2022-09-14T11:14:25.863Z,11.32
2022-09-14T11:17:20.143Z,9.25
2022-09-14T11:20:00.627Z,9.93
2022-09-14T11:22:59.415Z,13.07
2022-09-14T11:25:54.769Z,12.63
2022-09-14T11:28:33.033Z,8.98
2022-09-14T11:31:13.338Z,11.75
2022-09-14T11:33:47.307Z,11.80
2022-09-14T11:36:22.889Z,14.00
2022-09-14T11:38:57.938Z,10.52
2022-09-14T11:41:27.770Z,8.13
2022-09-14T11:44:11.084Z,9.43
2022-09-14T11:46:46.757Z,8.95
2022-09-14T11:49:34.609Z,8.75
2022-09-14T11:52:07.846Z,9.98
2022-09-14T11:54:34.863Z,10.43
2022-09-14T11:57:03.991Z,10.40
2022-09-14T11:59:50.886Z,8.65
2022-09-14T12:02:43.386Z,9.82
2022-09-14T12:05:10.988Z,8.60
2022-09-14T12:07:43.562Z,10.05
2022-09-14T12:10:18.836Z,8.80
2022-09-14T12:12:46.731Z,8.27
2022-09-14T12:15:26.007Z,8.18
2022-09-14T12:18:08.114Z,7.63
2022-09-14T12:20:37.659Z,7.40
2022-09-14T12:23:05.710Z,5.97
2022-09-14T12:25:33.846Z,6.10
2022-09-14T12:28:00.595Z,6.85
2022-09-14T12:30:47.606Z,5.97
2022-09-14T12:33:35.434Z,5.38
2022-09-14T12:36:37.371Z,5.25
2022-09-14T12:39:24.618Z,4.93
2022-09-14T12:41:51.292Z,5.50
2022-09-14T12:44:29.972Z,4.97
2022-09-14T12:46:56.810Z,6.55
2022-09-14T12:49:31.374Z,3.22
2022-09-14T12:52:04.161Z,4.07
2022-09-14T12:54:52.631Z,4.47
2022-09-14T12:57:30.513Z,4.22
2022-09-14T13:00:19.748Z,6.15
2022-09-14T13:02:52.661Z,5.20
2022-09-14T13:05:23.766Z,4.78
2022-09-14T13:07:51.400Z,6.25
2022-09-14T13:10:22.727Z,5.78
2022-09-14T13:12:50.779Z,5.72
2022-09-14T13:15:20.450Z,6.55
2022-09-14T13:18:18.914Z,6.07
2022-09-14T13:20:53.887Z,6.15
2022-09-14T13:23:27.499Z,6.65
2022-09-14T13:25:54.938Z,6.32
2022-09-14T13:28:23.731Z,6.20
2022-09-14T13:31:01.411Z,4.82
2022-09-14T13:33:29.793Z,7.22
2022-09-14T13:35:59.712Z,5.85
2022-09-14T13:38:30.602Z,6.78
2022-09-14T13:41:06.531Z,4.97
2022-09-14T13:43:34.302Z,7.28
2022-09-14T13:46:01.677Z,6.85
2022-09-14T13:48:28.773Z,5.55
2022-09-14T13:50:55.540Z,4.80
2022-09-14T13:53:37.554Z,4.80
2022-09-14T13:56:33.608Z,6.50
2022-09-14T13:59:12.304Z,7.13
2022-09-14T14:01:42.783Z,5.45
2022-09-14T14:04:37.291Z,7.35
2022-09-14T14:07:21.133Z,4.97
2022-09-14T14:09:52.188Z,5.85
2022-09-14T14:12:30.778Z,6.25
2022-09-14T14:15:03.547Z,6.65
2022-09-14T14:17:30.569Z,7.85
2022-09-14T14:20:21.182Z,6.43
2022-09-14T14:23:02.655Z,7.13
2022-09-14T14:25:32.866Z,6.55
2022-09-14T14:28:02.246Z,5.63
2022-09-14T14:30:30.323Z,8.27
2022-09-14T14:32:59.143Z,7.93
2022-09-14T14:35:30.987Z,6.82
2022-09-14T14:37:58.736Z,6.93
2022-09-14T14:40:29.839Z,5.70
2022-09-14T14:42:58.355Z,8.55
2022-09-14T14:45:27.259Z,10.63
2022-09-14T14:47:55.411Z,8.68
2022-09-14T14:50:33.420Z,6.00
2022-09-14T14:53:01.312Z,10.27
2022-09-14T14:55:32.009Z,8.95
2022-09-14T14:58:01.816Z,6.78
2022-09-14T15:00:32.456Z,5.45
2022-09-14T15:02:59.560Z,8.93
2022-09-14T15:05:27.729Z,5.18
2022-09-14T15:07:56.076Z,7.25
2022-09-14T15:10:25.027Z,7.15
2022-09-14T15:12:52.377Z,7.93
2022-09-14T15:15:26.435Z,6.55
2022-09-14T15:17:54.471Z,5.85
2022-09-14T15:20:22.047Z,6.00
2022-09-14T15:22:48.992Z,6.82
2022-09-14T15:25:17.127Z,8.60
2022-09-14T15:27:43.971Z,8.75
2022-09-14T15:30:12.092Z,7.93
2022-09-14T15:32:39.546Z,8.20
2022-09-14T15:35:08.630Z,6.22
2022-09-14T15:37:35.391Z,8.38
2022-09-14T15:40:03.192Z,6.28
2022-09-14T15:42:30.331Z,8.68
2022-09-14T15:44:57.002Z,9.80
2022-09-14T15:47:23.707Z,7.20
2022-09-14T15:49:52.671Z,7.70
2022-09-14T15:52:20.070Z,7.25
2022-09-14T15:54:46.838Z,7.22
2022-09-14T15:57:13.629Z,8.02
2022-09-14T15:59:40.383Z,8.93
2022-09-14T16:02:07.222Z,11.07
2022-09-14T16:04:38.814Z,10.73
2022-09-14T16:07:09.726Z,9.88
2022-09-14T16:09:38.439Z,17.70
2022-09-14T16:12:06.311Z,21.40
2022-09-14T16:14:33.156Z,21.17
2022-09-14T16:17:00.124Z,21.58
2022-09-14T16:19:27.606Z,15.95
2022-09-14T16:21:54.501Z,21.65
2022-09-14T16:24:22.645Z,7.07
2022-09-14T16:26:49.772Z,7.35
2022-09-14T16:29:24.025Z,5.47
2022-09-14T16:31:51.615Z,4.85
2022-09-14T16:34:25.606Z,4.18
2022-09-14T16:36:52.842Z,6.57
2022-09-14T16:39:23.511Z,5.70
2022-09-14T16:41:50.493Z,3.97
2022-09-14T16:44:23.306Z,3.67
2022-09-14T16:46:51.050Z,4.70
2022-09-14T16:49:21.271Z,4.70
2022-09-14T16:51:50.279Z,5.05
2022-09-14T16:54:19.018Z,4.40
2022-09-14T16:56:46.696Z,4.80
2022-09-14T16:59:13.975Z,4.90
2022-09-14T17:01:43.126Z,6.88
2022-09-14T17:04:14.042Z,7.03
2022-09-14T17:06:52.342Z,6.55
2022-09-14T17:09:25.500Z,7.72
2022-09-14T17:11:53.981Z,7.70
2022-09-14T17:14:23.308Z,5.00
2022-09-14T17:16:50.325Z,8.90
2022-09-14T17:19:17.491Z,7.10
2022-09-14T17:21:46.128Z,5.72
2022-09-14T17:24:14.405Z,4.93
2022-09-14T17:26:42.420Z,5.88
2022-09-14T17:29:10.014Z,4.13
2022-09-14T17:31:39.102Z,5.50
2022-09-14T17:34:08.092Z,5.47
2022-09-14T17:36:35.395Z,6.50
2022-09-14T17:39:06.768Z,9.18
2022-09-14T17:41:38.522Z,10.60
2022-09-14T17:44:06.574Z,10.50
2022-09-14T17:46:33.949Z,12.90
2022-09-14T17:49:04.018Z,9.95
2022-09-14T17:51:32.133Z,6.65
2022-09-14T17:54:00.676Z,8.25
2022-09-14T17:56:28.596Z,6.47
2022-09-14T17:59:02.014Z,6.55
2022-09-14T18:01:29.927Z,7.47
2022-09-14T18:04:00.952Z,7.15
2022-09-14T18:06:30.578Z,7.28
2022-09-14T18:09:01.797Z,7.82
2022-09-14T18:11:29.637Z,5.82
2022-09-14T18:13:56.788Z,10.07
2022-09-14T18:16:24.612Z,15.20
2022-09-14T18:18:51.689Z,11.88
2022-09-14T18:21:18.887Z,20.50
2022-09-14T18:23:53.243Z,14.25
2022-09-14T18:26:20.894Z,14.02
2022-09-14T18:28:48.249Z,18.38
2022-09-14T18:31:20.066Z,24.05
2022-09-14T18:33:57.815Z,28.10
2022-09-14T18:36:28.195Z,24.20
2022-09-14T18:38:57.013Z,20.27
2022-09-14T18:41:24.108Z,23.27
2022-09-14T18:43:52.331Z,17.77
2022-09-14T18:46:25.732Z,12.75
2022-09-14T18:48:57.017Z,9.88
2022-09-14T18:51:24.185Z,10.45
2022-09-14T18:54:07.361Z,12.20
2022-09-14T18:56:37.951Z,9.00
2022-09-14T18:59:14.784Z,9.00
2022-09-14T19:01:43.156Z,9.77
2022-09-14T19:04:11.416Z,9.02
2022-09-14T19:06:39.341Z,11.60
2022-09-14T19:09:06.927Z,11.60
2022-09-14T19:11:35.291Z,11.77
2022-09-14T19:14:10.002Z,10.20
2022-09-14T19:16:38.659Z,9.82
2022-09-14T19:19:07.734Z,9.50
2022-09-14T19:21:34.724Z,7.57
2022-09-14T19:24:21.537Z,8.15
2022-09-14T19:26:50.961Z,8.45
2022-09-14T19:29:21.363Z,7.78
2022-09-14T19:31:51.490Z,7.25
2022-09-14T19:34:19.982Z,6.20
2022-09-14T19:36:46.917Z,7.10
2022-09-14T19:39:13.730Z,5.63
2022-09-14T19:41:40.527Z,5.93
2022-09-14T19:44:07.693Z,5.90
2022-09-14T19:46:36.301Z,6.40
2022-09-14T19:49:03.199Z,7.43
2022-09-14T19:51:30.799Z,7.93
2022-09-14T19:54:00.310Z,9.43
2022-09-14T19:56:29.573Z,7.55
2022-09-14T19:58:58.976Z,8.25
2022-09-14T20:01:27.364Z,7.43
2022-09-14T20:03:55.095Z,5.88
2022-09-14T20:06:31.383Z,8.88
2022-09-14T20:09:00.943Z,9.02
2022-09-14T20:11:30.146Z,5.30
2022-09-14T20:13:58.400Z,5.25
2022-09-14T20:16:28.647Z,6.85
2022-09-14T20:18:57.572Z,6.85
2022-09-14T20:21:27.250Z,6.47
2022-09-14T20:24:16.074Z,6.57
2022-09-14T20:26:49.060Z,6.85
2022-09-14T20:29:20.118Z,7.30
2022-09-14T20:31:47.601Z,7.15
2022-09-14T20:34:16.538Z,8.50
2022-09-14T20:36:43.755Z,6.05
2022-09-14T20:39:10.890Z,8.20
2022-09-14T20:41:37.728Z,9.95
2022-09-14T20:44:05.138Z,7.13
2022-09-14T20:46:35.202Z,7.03
2022-09-14T20:49:04.459Z,6.38
2022-09-14T20:51:31.493Z,7.95
2022-09-14T20:53:58.330Z,6.70
2022-09-14T20:56:27.703Z,10.18
2022-09-14T20:58:56.379Z,11.85
2022-09-14T21:01:26.140Z,11.27
2022-09-14T21:03:53.409Z,12.07
2022-09-14T21:06:23.145Z,9.80
2022-09-14T21:08:50.395Z,13.27
2022-09-14T21:11:23.247Z,10.50
2022-09-14T21:13:52.109Z,13.20
2022-09-14T21:16:22.199Z,9.82
2022-09-14T21:18:57.262Z,12.25
2022-09-14T21:21:24.726Z,9.63
2022-09-14T21:23:52.671Z,9.65
2022-09-14T21:26:20.145Z,15.52
2022-09-14T21:28:47.750Z,8.90
2022-09-14T21:31:17.676Z,8.88
2022-09-14T21:33:48.029Z,7.53
2022-09-14T21:36:17.906Z,7.15
2022-09-14T21:38:49.589Z,10.48
2022-09-14T21:41:16.629Z,7.72
2022-09-14T21:43:43.334Z,6.93
2022-09-14T21:46:10.760Z,8.98
2022-09-14T21:48:38.225Z,5.60
2022-09-14T21:51:06.377Z,8.68
2022-09-14T21:53:34.160Z,8.63
2022-09-14T21:56:04.355Z,6.47
2022-09-14T21:58:31.298Z,6.40
2022-09-14T22:00:59.990Z,9.45
2022-09-14T22:03:27.927Z,6.68
2022-09-14T22:06:03.189Z,5.50
2022-09-14T22:08:31.297Z,7.93
2022-09-14T22:11:03.887Z,6.55
2022-09-14T22:13:30.957Z,7.30
2022-09-14T22:15:58.218Z,8.95
2022-09-14T22:18:25.140Z,8.80
2022-09-14T22:20:58.896Z,5.85
2022-09-14T22:23:25.711Z,7.95
2022-09-14T22:25:53.130Z,5.38
2022-09-14T22:28:20.671Z,8.68
2022-09-14T22:30:51.966Z,6.57
2022-09-14T22:33:21.072Z,7.22
2022-09-14T22:36:00.353Z,7.28
2022-09-14T22:38:28.847Z,5.13
2022-09-14T22:41:01.847Z,5.13
2022-09-14T22:43:30.107Z,5.53
2022-09-14T22:45:57.397Z,4.22
2022-09-14T22:48:24.166Z,5.43
2022-09-14T22:50:53.061Z,5.95
2022-09-14T22:53:20.837Z,4.75
2022-09-14T22:55:47.907Z,4.50
2022-09-14T22:58:16.717Z,5.13
2022-09-14T23:00:44.253Z,10.10
2022-09-14T23:03:11.850Z,5.78
2022-09-14T23:05:40.043Z,5.25
2022-09-14T23:08:07.956Z,4.75
2022-09-14T23:10:38.113Z,5.03
2022-09-14T23:13:05.347Z,5.72
2022-09-14T23:15:32.105Z,6.25
2022-09-14T23:17:58.816Z,7.55
2022-09-14T23:20:25.613Z,4.15
2022-09-14T23:22:52.382Z,4.82
2022-09-14T23:25:19.101Z,4.03
2022-09-14T23:27:45.877Z,5.47
2022-09-14T23:30:13.184Z,4.38
2022-09-14T23:32:40.027Z,5.55
2022-09-14T23:35:07.294Z,5.55
2022-09-14T23:37:34.071Z,7.32
2022-09-14T23:40:01.010Z,6.60
2022-09-14T23:42:27.778Z,4.50
2022-09-14T23:44:54.495Z,6.15
2022-09-14T23:47:21.461Z,6.00
2022-09-14T23:49:48.129Z,6.43
2022-09-14T23:52:15.142Z,4.95
2022-09-14T23:54:42.717Z,6.03
2022-09-14T23:57:09.407Z,5.88
2022-09-14T23:59:36.087Z,6.43
